KDMO/DMO METAR and TAF weather

Enter ICAO airport designator
Station Type Date Time Source
KDMO METAR 2024/07/23 17:53 UTC NOAA

KDMO 231753Z AUTO 00000KT 10SM CLR 28/18 A3010 RMK AO2 SLP182 T02830178 10289 20183 50001


Station Type Date Time Source
KDMO Decoded METAR 2024/07/23 17:53 UTC NOAA

SEDALIA MEMORIAL AIRPORT, MO, United States (KDMO) 38-43N 93-10W 274M
Jul 23, 2024 - 01:53 PM EDT / 2024.07.23 1753 UTC
Wind: Calm:0
Visibility: 10 mile(s):0
Sky conditions: clear
Temperature: 82.9 F (28.3 C)
Dew Point: 64.0 F (17.8 C)
Relative Humidity: 52%
Pressure (altimeter): 30.1 in. Hg (1019 hPa)
Pressure tendency: 0.00 inches (0.1 hPa) higher than three hours ago
ob: KDMO 231753Z AUTO 00000KT 10SM CLR 28/18 A3010 RMK AO2 SLP182 T02830178 10289 20183 50001
cycle: 18

Station Type Date Time Source
KDMO TAF UTC NOAA

Error!

Example: see airport list